createdAt,value
2022-12-19T00:00:04.515Z,-0.33
2022-12-19T00:03:14.381Z,-0.35
2022-12-19T00:06:17.796Z,-0.26
2022-12-19T00:09:19.366Z,-0.12
2022-12-19T00:12:20.885Z,-0.03
2022-12-19T00:15:22.537Z,-0.15
2022-12-19T00:18:24.013Z,-0.14
2022-12-19T00:21:30.478Z,-0.09
2022-12-19T00:24:32.063Z,-0.10
2022-12-19T00:27:36.711Z,-0.10
2022-12-19T00:30:38.178Z,-0.09
2022-12-19T00:33:40.646Z,-0.04
2022-12-19T00:36:46.615Z,0.04
2022-12-19T00:39:48.103Z,0.06
2022-12-19T00:42:53.506Z,0.08
2022-12-19T00:45:55.471Z,0.13
2022-12-19T00:48:58.775Z,0.13
2022-12-19T00:52:00.227Z,0.17
2022-12-19T00:55:01.752Z,0.23
2022-12-19T00:58:05.234Z,0.25
2022-12-19T01:01:09.158Z,0.29
2022-12-19T01:04:31.711Z,0.27
2022-12-19T01:07:35.504Z,0.27
2022-12-19T01:10:37.417Z,0.26
2022-12-19T01:13:42.059Z,0.29
2022-12-19T01:16:44.000Z,0.22
2022-12-19T01:19:45.654Z,0.24
2022-12-19T01:22:47.583Z,0.34
2022-12-19T01:25:53.240Z,0.34
2022-12-19T01:28:54.972Z,0.34
2022-12-19T01:31:56.541Z,0.41
2022-12-19T01:34:58.240Z,0.44
2022-12-19T01:38:07.613Z,0.47
2022-12-19T01:41:10.640Z,0.53
2022-12-19T01:44:12.237Z,0.50
2022-12-19T01:47:13.897Z,0.46
2022-12-19T01:50:29.587Z,0.39
2022-12-19T01:53:44.689Z,0.39
2022-12-19T01:56:53.463Z,0.44
2022-12-19T01:59:59.236Z,0.52
2022-12-19T02:03:08.450Z,0.58
2022-12-19T02:06:15.833Z,0.57
2022-12-19T02:09:17.530Z,0.53
2022-12-19T02:12:19.405Z,0.45
2022-12-19T02:15:23.680Z,0.57
2022-12-19T02:18:41.550Z,0.60
2022-12-19T02:21:57.623Z,0.61
2022-12-19T02:25:18.197Z,0.61
2022-12-19T02:28:58.024Z,0.54
2022-12-19T02:32:12.120Z,0.61
2022-12-19T02:35:19.844Z,0.63
2022-12-19T02:38:44.768Z,0.58
2022-12-19T02:41:57.574Z,0.71
2022-12-19T02:45:05.289Z,0.65
2022-12-19T02:48:09.155Z,0.61
2022-12-19T02:51:12.324Z,0.54
2022-12-19T02:54:13.942Z,0.62
2022-12-19T02:57:58.685Z,0.58
2022-12-19T03:01:06.778Z,0.58
2022-12-19T03:04:15.552Z,0.65
2022-12-19T03:07:32.301Z,0.72
2022-12-19T03:10:56.732Z,0.70
2022-12-19T03:14:12.362Z,0.64
2022-12-19T03:17:14.841Z,0.70
2022-12-19T03:20:28.752Z,0.68
2022-12-19T03:23:31.294Z,0.66
2022-12-19T03:26:37.644Z,0.70
2022-12-19T03:30:03.627Z,0.69
2022-12-19T03:33:07.817Z,0.73
2022-12-19T03:36:12.853Z,0.72
2022-12-19T03:39:16.579Z,0.64
2022-12-19T03:42:39.310Z,0.71
2022-12-19T03:45:48.202Z,0.63
2022-12-19T03:48:54.560Z,0.71
2022-12-19T03:52:10.700Z,0.74
2022-12-19T03:55:15.525Z,0.80
2022-12-19T03:58:24.677Z,0.80
2022-12-19T04:01:28.610Z,0.84
2022-12-19T04:04:34.553Z,0.76
2022-12-19T04:07:39.133Z,0.81
2022-12-19T04:10:55.710Z,0.84
2022-12-19T04:14:02.796Z,0.86
2022-12-19T04:17:08.539Z,0.87
2022-12-19T04:20:13.415Z,0.85
2022-12-19T04:23:20.721Z,0.84
2022-12-19T04:26:24.512Z,0.79
2022-12-19T04:29:30.932Z,0.85
2022-12-19T04:32:35.728Z,0.87
2022-12-19T04:35:38.098Z,0.86
2022-12-19T04:38:39.809Z,0.87
2022-12-19T04:41:41.337Z,0.89
2022-12-19T04:44:42.822Z,0.95
2022-12-19T04:47:44.305Z,0.92
2022-12-19T04:50:45.735Z,0.97
2022-12-19T04:53:47.333Z,1.03
2022-12-19T04:56:48.797Z,0.94
2022-12-19T04:59:50.281Z,0.99
2022-12-19T05:02:52.040Z,0.97
2022-12-19T05:05:53.957Z,0.96
2022-12-19T05:08:57.747Z,0.93
2022-12-19T05:11:59.243Z,0.95
2022-12-19T05:15:01.435Z,1.01
2022-12-19T05:18:03.066Z,0.91
2022-12-19T05:21:05.317Z,1.02
2022-12-19T05:24:07.182Z,1.10
2022-12-19T05:27:08.799Z,1.10
2022-12-19T05:30:10.808Z,0.99
2022-12-19T05:33:12.384Z,0.98
2022-12-19T05:36:15.927Z,0.98
2022-12-19T05:39:17.549Z,0.95
2022-12-19T05:42:19.095Z,1.02
2022-12-19T05:45:20.711Z,1.03
2022-12-19T05:48:22.568Z,1.07
2022-12-19T05:51:24.181Z,1.10
2022-12-19T05:54:25.798Z,1.16
2022-12-19T05:57:27.328Z,1.01
2022-12-19T06:01:30.306Z,1.05
2022-12-19T06:04:32.084Z,1.02
2022-12-19T06:07:34.885Z,0.99
2022-12-19T06:10:36.585Z,1.01
2022-12-19T06:13:38.798Z,1.08
2022-12-19T06:16:40.618Z,1.08
2022-12-19T06:19:42.233Z,1.12
2022-12-19T06:22:43.877Z,1.12
2022-12-19T06:25:45.526Z,1.18
2022-12-19T06:28:52.246Z,1.16
2022-12-19T06:31:53.902Z,1.15
2022-12-19T06:35:03.948Z,1.03
2022-12-19T06:38:06.351Z,1.11
2022-12-19T06:41:28.398Z,1.17
2022-12-19T06:44:31.828Z,1.21
2022-12-19T06:47:33.397Z,1.27
2022-12-19T06:50:35.922Z,1.21
2022-12-19T06:53:37.535Z,1.24
2022-12-19T06:56:41.510Z,1.21
2022-12-19T06:59:43.464Z,1.26
2022-12-19T07:02:48.464Z,1.23
2022-12-19T07:05:50.534Z,1.26
2022-12-19T07:08:52.936Z,1.20
2022-12-19T07:11:54.474Z,1.22
2022-12-19T07:14:56.022Z,1.25
2022-12-19T07:17:59.521Z,1.26
2022-12-19T07:21:02.262Z,1.13
2022-12-19T07:24:04.518Z,1.04
2022-12-19T07:27:09.271Z,1.09
2022-12-19T07:30:11.727Z,1.15
2022-12-19T07:33:19.743Z,1.13
2022-12-19T07:36:22.941Z,1.17
2022-12-19T07:39:24.822Z,1.27
2022-12-19T07:42:32.137Z,1.19
2022-12-19T07:45:37.924Z,1.25
2022-12-19T07:48:40.466Z,1.34
2022-12-19T07:51:42.057Z,1.42
2022-12-19T07:54:43.629Z,1.46
2022-12-19T07:57:45.137Z,1.44
2022-12-19T08:00:54.026Z,1.47
2022-12-19T08:03:55.923Z,1.43
2022-12-19T08:06:57.548Z,1.42
2022-12-19T08:09:59.088Z,1.49
2022-12-19T08:13:00.669Z,1.56
2022-12-19T08:16:02.347Z,1.65
2022-12-19T08:19:04.150Z,1.62
2022-12-19T08:22:05.635Z,1.77
2022-12-19T08:25:07.916Z,1.91
2022-12-19T08:28:10.284Z,2.06
2022-12-19T08:31:15.230Z,2.14
2022-12-19T08:34:16.777Z,2.22
2022-12-19T08:37:18.360Z,2.21
2022-12-19T08:40:20.085Z,2.24
2022-12-19T08:43:21.795Z,2.36
2022-12-19T08:46:23.782Z,2.55
2022-12-19T08:49:25.426Z,2.76
2022-12-19T08:52:27.025Z,2.94
2022-12-19T08:55:28.641Z,3.06
2022-12-19T08:58:31.412Z,3.13
2022-12-19T09:01:33.066Z,3.18
2022-12-19T09:06:00.193Z,3.24
2022-12-19T09:07:56.211Z,3.36
2022-12-19T09:11:02.665Z,3.35
2022-12-19T09:14:05.134Z,3.43
2022-12-19T09:17:06.948Z,3.57
2022-12-19T09:20:10.841Z,3.62
2022-12-19T09:23:12.431Z,3.57
2022-12-19T09:26:14.064Z,3.52
2022-12-19T09:29:20.498Z,3.53
2022-12-19T09:32:23.112Z,3.73
2022-12-19T09:35:30.049Z,3.77
2022-12-19T09:38:33.776Z,3.89
2022-12-19T09:41:57.957Z,4.03
2022-12-19T09:45:14.499Z,4.08
2022-12-19T09:48:23.939Z,4.10
2022-12-19T09:51:41.449Z,4.08
2022-12-19T09:54:57.215Z,4.24
2022-12-19T09:58:12.040Z,4.42
2022-12-19T10:01:24.647Z,4.49
2022-12-19T10:04:29.767Z,4.55
2022-12-19T10:08:01.345Z,4.47
2022-12-19T10:12:38.374Z,4.52
2022-12-19T10:14:47.688Z,4.75
2022-12-19T10:17:58.421Z,4.94
2022-12-19T10:21:20.102Z,4.98
2022-12-19T10:25:09.217Z,5.15
2022-12-19T10:28:11.228Z,5.21
2022-12-19T10:31:27.720Z,5.39
2022-12-19T10:34:41.081Z,5.64
2022-12-19T10:38:18.104Z,5.77
2022-12-19T10:41:28.978Z,5.98
2022-12-19T10:44:36.064Z,5.92
2022-12-19T10:47:37.780Z,5.79
2022-12-19T10:50:39.376Z,5.74
2022-12-19T10:53:41.021Z,5.67
2022-12-19T10:56:45.606Z,5.74
2022-12-19T11:00:00.695Z,5.81
2022-12-19T11:03:19.262Z,5.82
2022-12-19T11:06:48.514Z,5.73
2022-12-19T11:10:05.336Z,5.65
2022-12-19T11:19:27.543Z,5.62
2022-12-19T11:22:05.349Z,5.71
2022-12-19T11:29:18.963Z,5.71
2022-12-19T11:29:42.537Z,5.77
2022-12-19T11:30:46.433Z,5.99
2022-12-19T11:34:50.401Z,6.08
2022-12-19T11:37:56.205Z,6.14
2022-12-19T11:41:02.357Z,6.13
2022-12-19T11:44:19.431Z,6.09
2022-12-19T11:47:35.849Z,6.14
2022-12-19T11:50:59.961Z,6.28
2022-12-19T11:54:20.593Z,6.35
2022-12-19T11:57:22.347Z,6.50
2022-12-19T12:00:24.796Z,6.59
2022-12-19T12:04:01.134Z,6.71
2022-12-19T12:07:20.470Z,6.74
2022-12-19T12:14:39.745Z,6.71
2022-12-19T12:22:40.789Z,6.92
2022-12-19T12:29:36.606Z,7.20
2022-12-19T12:31:22.520Z,7.44
2022-12-19T12:31:42.134Z,7.39
2022-12-19T12:31:49.684Z,7.35
2022-12-19T12:35:50.921Z,7.11
2022-12-19T12:39:57.885Z,6.99
2022-12-19T12:43:31.782Z,6.95
2022-12-19T12:46:40.798Z,6.91
2022-12-19T12:49:46.078Z,6.84
2022-12-19T12:52:54.869Z,6.83
2022-12-19T12:55:58.978Z,6.68
2022-12-19T12:59:00.793Z,6.71
2022-12-19T13:02:18.424Z,6.62
2022-12-19T13:05:32.200Z,6.51
2022-12-19T13:08:45.982Z,6.50
2022-12-19T13:12:09.662Z,6.59
2022-12-19T13:15:29.859Z,6.71
2022-12-19T13:18:37.947Z,6.56
2022-12-19T13:22:04.662Z,6.50
2022-12-19T13:25:43.972Z,6.65
2022-12-19T13:28:45.565Z,6.70
2022-12-19T13:32:08.396Z,6.79
2022-12-19T13:35:54.336Z,6.90
2022-12-19T13:39:57.247Z,6.81
2022-12-19T13:42:28.660Z,6.69
2022-12-19T13:45:32.818Z,6.54
2022-12-19T13:48:37.560Z,6.38
2022-12-19T13:51:47.159Z,6.25
2022-12-19T13:54:51.664Z,6.20
2022-12-19T13:57:54.839Z,6.21
2022-12-19T14:01:01.084Z,6.18
2022-12-19T14:04:09.266Z,6.17
2022-12-19T14:07:41.676Z,6.05
2022-12-19T14:11:31.665Z,5.90
2022-12-19T14:14:34.258Z,5.82
2022-12-19T14:17:35.809Z,5.83
2022-12-19T14:22:04.658Z,5.68
2022-12-19T14:24:15.397Z,5.70
2022-12-19T14:28:26.021Z,5.72
2022-12-19T14:30:43.580Z,5.63
2022-12-19T14:34:04.714Z,5.53
2022-12-19T14:39:20.229Z,5.50
2022-12-19T14:41:09.403Z,5.40
2022-12-19T14:51:42.905Z,5.17
2022-12-19T14:53:08.439Z,5.08
2022-12-19T14:54:34.885Z,4.86
2022-12-19T14:58:53.612Z,4.65
2022-12-19T15:01:34.915Z,4.59
2022-12-19T15:04:50.397Z,4.41
2022-12-19T15:07:58.901Z,4.17
2022-12-19T15:11:44.484Z,4.14
2022-12-19T15:14:58.990Z,4.05
2022-12-19T15:18:15.987Z,4.03
2022-12-19T15:21:17.532Z,3.88
2022-12-19T15:24:46.504Z,3.80
2022-12-19T15:27:48.229Z,3.65
2022-12-19T15:30:58.352Z,3.61
2022-12-19T15:37:22.506Z,3.43
2022-12-19T15:40:24.154Z,3.42
2022-12-19T15:44:02.046Z,3.40
2022-12-19T15:46:49.369Z,3.43
2022-12-19T15:49:51.138Z,3.33
2022-12-19T15:52:58.201Z,3.36
2022-12-19T15:56:01.617Z,3.34
2022-12-19T15:59:05.166Z,3.30
2022-12-19T16:02:17.318Z,3.44
2022-12-19T16:05:21.085Z,3.33
2022-12-19T16:08:26.201Z,3.26
2022-12-19T16:11:28.245Z,3.32
2022-12-19T16:14:29.877Z,3.37
2022-12-19T16:17:33.883Z,3.33
2022-12-19T16:20:39.346Z,3.23
2022-12-19T16:23:40.985Z,3.24
2022-12-19T16:26:43.033Z,3.27
2022-12-19T16:29:46.054Z,3.37
2022-12-19T16:32:48.594Z,3.27
2022-12-19T16:36:07.731Z,3.23
2022-12-19T16:39:09.592Z,3.28
2022-12-19T16:42:16.343Z,3.34
2022-12-19T16:45:24.647Z,3.37
2022-12-19T16:48:29.643Z,3.38
2022-12-19T16:51:31.219Z,3.36
2022-12-19T16:54:32.765Z,3.34
2022-12-19T16:57:34.793Z,3.28
2022-12-19T17:00:37.608Z,3.28
2022-12-19T17:03:41.939Z,3.26
2022-12-19T17:06:44.049Z,3.24
2022-12-19T17:09:45.639Z,3.37
2022-12-19T17:12:48.037Z,3.41
2022-12-19T17:15:56.403Z,3.45
2022-12-19T17:18:59.369Z,3.44
2022-12-19T17:22:00.857Z,3.33
2022-12-19T17:25:12.203Z,3.35
2022-12-19T17:28:13.914Z,3.33
2022-12-19T17:31:28.299Z,3.26
2022-12-19T17:34:33.782Z,3.10
2022-12-19T17:37:35.335Z,3.04
2022-12-19T17:40:36.848Z,3.16
2022-12-19T17:43:38.335Z,3.14
2022-12-19T17:46:40.095Z,3.11
2022-12-19T17:49:42.064Z,3.03
2022-12-19T17:52:43.672Z,3.04
2022-12-19T17:55:45.323Z,3.00
2022-12-19T17:58:48.021Z,3.01
2022-12-19T18:01:49.948Z,3.03
2022-12-19T18:04:52.692Z,2.99
2022-12-19T18:07:54.994Z,2.91
2022-12-19T18:11:01.812Z,2.91
2022-12-19T18:14:03.540Z,2.87
2022-12-19T18:17:05.495Z,2.78
2022-12-19T18:20:32.550Z,2.74
2022-12-19T18:23:34.457Z,2.72
2022-12-19T18:26:36.133Z,2.79
2022-12-19T18:29:37.808Z,2.89
2022-12-19T18:32:39.393Z,2.82
2022-12-19T18:35:43.611Z,2.89
2022-12-19T18:38:45.400Z,2.87
2022-12-19T18:41:47.387Z,2.93
2022-12-19T18:44:49.093Z,2.91
2022-12-19T18:47:58.311Z,2.88
2022-12-19T18:51:01.461Z,2.89
2022-12-19T18:54:11.935Z,2.86
2022-12-19T18:57:14.567Z,2.96
2022-12-19T19:00:22.199Z,3.01
2022-12-19T19:03:29.386Z,3.05
2022-12-19T19:06:37.337Z,3.05
2022-12-19T19:09:39.494Z,3.04
2022-12-19T19:13:09.997Z,3.03
2022-12-19T19:16:30.014Z,3.03
2022-12-19T19:19:31.846Z,3.02
2022-12-19T19:22:33.819Z,2.99
2022-12-19T19:25:35.998Z,2.97
2022-12-19T19:28:39.376Z,3.01
2022-12-19T19:31:45.798Z,2.89
2022-12-19T19:34:48.351Z,2.86
2022-12-19T19:37:52.834Z,2.88
2022-12-19T19:40:54.382Z,2.84
2022-12-19T19:43:59.872Z,2.78
2022-12-19T19:47:01.986Z,2.76
2022-12-19T19:50:07.724Z,2.70
2022-12-19T19:53:09.338Z,2.71
2022-12-19T19:56:10.861Z,2.74
2022-12-19T19:59:12.611Z,2.77
2022-12-19T20:02:33.259Z,2.83
2022-12-19T20:05:38.019Z,2.94
2022-12-19T20:08:40.877Z,2.85
2022-12-19T20:11:42.892Z,2.82
2022-12-19T20:14:44.681Z,2.75
2022-12-19T20:17:46.358Z,2.72
2022-12-19T20:20:48.831Z,2.65
2022-12-19T20:23:50.837Z,2.64
2022-12-19T20:26:52.600Z,2.59
2022-12-19T20:29:54.269Z,2.52
2022-12-19T20:32:55.777Z,2.52
2022-12-19T20:35:58.381Z,2.57
2022-12-19T20:38:59.919Z,2.51
2022-12-19T20:42:01.537Z,2.53
2022-12-19T20:45:03.639Z,2.50
2022-12-19T20:48:05.305Z,2.49
2022-12-19T20:51:07.788Z,2.54
2022-12-19T20:54:11.498Z,2.49
2022-12-19T20:57:13.008Z,2.49
2022-12-19T21:00:15.137Z,2.42
2022-12-19T21:03:27.794Z,2.43
2022-12-19T21:06:30.359Z,2.44
2022-12-19T21:09:32.023Z,2.42
2022-12-19T21:12:33.658Z,2.39
2022-12-19T21:15:35.186Z,2.40
2022-12-19T21:18:39.115Z,2.38
2022-12-19T21:21:40.773Z,2.37
2022-12-19T21:24:42.338Z,2.36
2022-12-19T21:27:43.896Z,2.41
2022-12-19T21:30:45.518Z,2.44
2022-12-19T21:33:47.754Z,2.42
2022-12-19T21:36:49.277Z,2.49
2022-12-19T21:39:50.849Z,2.52
2022-12-19T21:42:52.463Z,2.53
2022-12-19T21:46:04.176Z,2.55
2022-12-19T21:49:08.412Z,2.55
2022-12-19T21:52:10.202Z,2.57
2022-12-19T21:55:11.727Z,2.57
2022-12-19T21:58:13.328Z,2.58
2022-12-19T22:01:15.693Z,2.63
2022-12-19T22:04:23.806Z,2.63
2022-12-19T22:07:25.385Z,2.69
2022-12-19T22:10:26.922Z,2.78
2022-12-19T22:13:29.313Z,2.80
2022-12-19T22:16:31.755Z,2.80
2022-12-19T22:19:33.427Z,2.85
2022-12-19T22:22:34.964Z,2.87
2022-12-19T22:25:36.688Z,2.82
2022-12-19T22:28:40.332Z,2.74
2022-12-19T22:31:42.750Z,2.74
2022-12-19T22:34:47.279Z,2.74
2022-12-19T22:37:48.922Z,2.70
2022-12-19T22:40:50.584Z,2.68
2022-12-19T22:43:53.089Z,2.67
2022-12-19T22:46:54.732Z,2.67
2022-12-19T22:49:56.339Z,2.69
2022-12-19T22:52:57.958Z,2.72
2022-12-19T22:56:06.262Z,2.74
2022-12-19T22:59:08.993Z,2.74
2022-12-19T23:02:10.691Z,2.69
2022-12-19T23:05:12.430Z,2.48
2022-12-19T23:08:13.937Z,2.44
2022-12-19T23:11:18.998Z,2.44
2022-12-19T23:14:20.988Z,2.34
2022-12-19T23:17:22.553Z,2.36
2022-12-19T23:20:24.035Z,2.43
2022-12-19T23:23:25.682Z,2.41
2022-12-19T23:26:29.960Z,2.37
2022-12-19T23:29:31.553Z,2.28
2022-12-19T23:32:33.114Z,2.29
2022-12-19T23:35:34.982Z,2.27
2022-12-19T23:38:36.643Z,2.30
2022-12-19T23:41:38.463Z,2.38
2022-12-19T23:44:40.110Z,2.36
2022-12-19T23:47:41.691Z,2.44
2022-12-19T23:50:43.298Z,2.62
2022-12-19T23:53:45.273Z,2.53
2022-12-19T23:56:46.921Z,2.46
2022-12-19T23:59:48.645Z,2.36
